Daytona Beach International Airport (DAB/KDAB)



Flight Aircraft Arriving
CPX3267
KMIA - Miami International Airport
United StatesFlorida Miami, Florida
Flight Aircraft Departing
CPX3268
KMIA - Miami International Airport
United StatesFlorida Miami, Florida


Airport Information
Location: Daytona Beach, Florida
Coordinates: 29.1799 / -81.0581
Field Elevation: 34ft
Longest Runway: 10,499ft
ILS Approaches: YES
Landing Fees: $668 per flight
Jet A Price: $0.30/lbs
Charts:

Current Weather
METAR: KDAB 070153Z 00000KT 10SM SCT042 BKN200 20/17 A3009 RMK AO2 SLP187 T02000167
TAF: KDAB 062346Z 0700/0724 VRB03KT P6SM SCT050 BKN250 FM070900 VRB03KT 3SM BR SCT002 SCT250 FM071100 VRB03KT 1/4SM FG BKN002 FM071400 34004KT 3SM BR SCT010 SCT250 FM071600 02006KT P6SM FEW035 SCT250

Recent Arrivals
Date Flight Type Depart
08/24/2021 CPX3268 SF34 Miami Intl (KMIA)
03/28/2021 CPX3268 SF34 Miami Intl (KMIA)
08/29/2020 CPX3268 SF34 Miami Intl (KMIA)
01/03/2020 CPX3268 SF34 Miami Intl (KMIA)
11/04/2019 CPX668 SF34 Miami Intl (KMIA)
Recent Departures
Date Flight Type Arrive
08/25/2021 CPX3267 SF34 Miami Intl (KMIA)
03/28/2021 CPX3267 SF34 Miami Intl (KMIA)
08/30/2020 CPX3267 SF34 Miami Intl (KMIA)
01/04/2020 CPX3267 SF34 Miami Intl (KMIA)
11/05/2019 CPX667 SF34 Miami Intl (KMIA)